createdAt,value
2023-10-15T00:00:53.398Z,87.61
2023-10-15T00:01:53.418Z,87.51
2023-10-15T00:02:53.425Z,87.92
2023-10-15T00:03:53.329Z,88.33
2023-10-15T00:04:53.422Z,88.12
2023-10-15T00:05:53.302Z,88.43
2023-10-15T00:06:53.314Z,88.84
2023-10-15T00:07:53.287Z,89.15
2023-10-15T00:08:53.280Z,88.74
2023-10-15T00:09:53.248Z,88.84
2023-10-15T00:10:53.281Z,89.25
2023-10-15T00:11:53.232Z,89.76
2023-10-15T00:12:53.214Z,89.15
2023-10-15T00:13:53.228Z,89.25
2023-10-15T00:14:53.187Z,89.25
2023-10-15T00:15:53.197Z,90.08
2023-10-15T00:16:53.265Z,89.76
2023-10-15T00:17:53.261Z,89.25
2023-10-15T00:18:53.251Z,89.56
2023-10-15T00:19:53.179Z,89.50
2023-10-15T00:20:53.127Z,89.40
2023-10-15T00:21:53.124Z,89.40
2023-10-15T00:22:53.177Z,89.70
2023-10-15T00:23:53.088Z,89.64
2023-10-15T00:24:53.081Z,89.85
2023-10-15T00:25:53.136Z,90.26
2023-10-15T00:26:53.060Z,90.26
2023-10-15T00:27:53.042Z,90.57
2023-10-15T00:28:53.060Z,90.88
2023-10-15T00:29:53.021Z,90.30
2023-10-15T00:30:53.074Z,90.81
2023-10-15T00:31:53.028Z,91.13
2023-10-15T00:32:53.022Z,91.44
2023-10-15T00:33:52.971Z,91.64
2023-10-15T00:34:53.015Z,91.85
2023-10-15T00:35:52.962Z,91.85
2023-10-15T00:36:52.954Z,91.95
2023-10-15T00:37:52.958Z,92.05
2023-10-15T00:38:52.944Z,92.25
2023-10-15T00:39:52.912Z,92.57
2023-10-15T00:40:53.195Z,92.50
2023-10-15T00:41:52.878Z,93.43
2023-10-15T00:42:52.921Z,92.82
2023-10-15T00:43:52.919Z,93.02
2023-10-15T00:44:52.842Z,93.02
2023-10-15T00:45:52.868Z,93.12
2023-10-15T00:46:52.960Z,93.58
2023-10-15T00:47:52.867Z,93.33
2023-10-15T00:48:52.797Z,93.23
2023-10-15T00:49:52.829Z,93.68
2023-10-15T00:50:52.895Z,93.74
2023-10-15T00:51:52.787Z,94.05
2023-10-15T00:52:52.803Z,93.95
2023-10-15T00:53:52.758Z,94.40
2023-10-15T00:54:52.759Z,94.20
2023-10-15T00:55:52.781Z,94.30
2023-10-15T00:56:52.701Z,94.15
2023-10-15T00:57:52.707Z,94.20
2023-10-15T00:58:52.729Z,93.68
2023-10-15T00:59:52.669Z,94.20
2023-10-15T01:00:52.710Z,94.30
2023-10-15T01:01:52.715Z,94.51
2023-10-15T01:02:52.711Z,94.20
2023-10-15T01:03:52.627Z,94.40
2023-10-15T01:04:52.647Z,94.67
2023-10-15T01:05:52.618Z,94.87
2023-10-15T01:06:52.612Z,94.81
2023-10-15T01:07:52.670Z,94.71
2023-10-15T01:08:52.587Z,94.67
2023-10-15T01:09:52.581Z,94.71
2023-10-15T01:10:52.603Z,94.56
2023-10-15T01:11:52.744Z,94.60
2023-10-15T01:12:52.532Z,94.26
2023-10-15T01:13:52.581Z,94.26
2023-10-15T01:14:52.535Z,94.46
2023-10-15T01:15:52.512Z,94.46
2023-10-15T01:16:52.581Z,94.36
2023-10-15T01:17:52.487Z,94.56
2023-10-15T01:18:52.488Z,94.60
2023-10-15T01:19:52.482Z,94.60
2023-10-15T01:20:52.451Z,94.67
2023-10-15T01:21:52.435Z,94.51
2023-10-15T01:22:52.466Z,94.46
2023-10-15T01:23:52.408Z,94.56
2023-10-15T01:24:52.411Z,93.88
2023-10-15T01:25:52.438Z,94.26
2023-10-15T01:26:52.397Z,93.99
2023-10-15T01:27:52.366Z,94.20
2023-10-15T01:28:52.394Z,94.15
2023-10-15T01:29:52.348Z,94.09
2023-10-15T01:30:52.368Z,94.26
2023-10-15T01:31:52.425Z,93.99
2023-10-15T01:32:52.317Z,93.84
2023-10-15T01:33:52.296Z,93.84
2023-10-15T01:34:52.346Z,94.26
2023-10-15T01:35:52.268Z,93.88
2023-10-15T01:36:52.298Z,93.33
2023-10-15T01:37:52.288Z,93.12
2023-10-15T01:38:52.232Z,93.74
2023-10-15T01:39:52.228Z,93.64
2023-10-15T01:40:52.390Z,94.26
2023-10-15T01:41:52.197Z,94.05
2023-10-15T01:42:52.207Z,94.26
2023-10-15T01:43:52.211Z,94.26
2023-10-15T01:44:52.170Z,93.02
2023-10-15T01:45:52.170Z,94.15
2023-10-15T01:46:52.212Z,93.23
2023-10-15T01:47:52.134Z,93.95
2023-10-15T01:48:52.119Z,94.15
2023-10-15T01:49:52.139Z,93.74
2023-10-15T01:50:52.109Z,93.64
2023-10-15T01:51:52.082Z,93.74
2023-10-15T01:52:52.113Z,93.95
2023-10-15T01:53:52.054Z,94.05
2023-10-15T01:54:52.042Z,94.05
2023-10-15T01:55:52.106Z,94.46
2023-10-15T01:56:52.042Z,94.46
2023-10-15T01:57:52.007Z,94.09
2023-10-15T01:58:52.086Z,94.67
2023-10-15T01:59:51.982Z,94.56
2023-10-15T02:00:51.986Z,94.36
2023-10-15T02:01:52.021Z,94.56
2023-10-15T02:02:52.096Z,94.98
2023-10-15T02:03:52.014Z,94.67
2023-10-15T02:04:51.994Z,94.98
2023-10-15T02:05:51.933Z,94.87
2023-10-15T02:06:51.908Z,94.52
2023-10-15T02:07:51.986Z,94.62
2023-10-15T02:08:51.883Z,94.77
2023-10-15T02:09:51.883Z,94.42
2023-10-15T02:10:51.911Z,94.52
2023-10-15T02:11:51.863Z,94.11
2023-10-15T02:12:51.842Z,94.93
2023-10-15T02:13:51.845Z,94.21
2023-10-15T02:14:51.839Z,94.46
2023-10-15T02:15:51.827Z,93.95
2023-10-15T02:16:52.007Z,94.67
2023-10-15T02:17:51.821Z,94.67
2023-10-15T02:18:51.793Z,94.26
2023-10-15T02:19:51.879Z,94.56
2023-10-15T02:20:51.756Z,94.67
2023-10-15T02:21:51.756Z,94.52
2023-10-15T02:22:51.763Z,94.62
2023-10-15T02:23:51.716Z,94.62
2023-10-15T02:24:51.709Z,94.21
2023-10-15T02:25:51.707Z,93.90
2023-10-15T02:26:51.712Z,93.84
2023-10-15T02:27:51.663Z,93.95
2023-10-15T02:28:51.667Z,93.90
2023-10-15T02:29:51.642Z,94.26
2023-10-15T02:30:51.764Z,94.67
2023-10-15T02:31:51.712Z,93.95
2023-10-15T02:32:51.691Z,94.56
2023-10-15T02:33:51.666Z,94.26
2023-10-15T02:34:51.706Z,94.46
2023-10-15T02:35:51.573Z,94.67
2023-10-15T02:36:51.568Z,94.67
2023-10-15T02:37:51.632Z,94.67
2023-10-15T02:38:51.588Z,95.18
2023-10-15T02:39:51.553Z,94.56
2023-10-15T02:40:51.541Z,94.67
2023-10-15T02:41:51.509Z,94.56
2023-10-15T02:42:51.501Z,94.46
2023-10-15T02:43:51.565Z,94.36
2023-10-15T02:44:51.472Z,94.56
2023-10-15T02:45:51.468Z,94.60
2023-10-15T02:46:51.545Z,94.30
2023-10-15T02:47:51.467Z,94.60
2023-10-15T02:48:51.425Z,94.71
2023-10-15T02:49:51.471Z,94.92
2023-10-15T02:50:51.415Z,94.71
2023-10-15T02:51:51.390Z,94.81
2023-10-15T02:52:51.766Z,94.85
2023-10-15T02:53:51.400Z,95.23
2023-10-15T02:54:51.368Z,95.48
2023-10-15T02:55:51.385Z,95.68
2023-10-15T02:56:51.334Z,95.37
2023-10-15T02:57:51.327Z,95.58
2023-10-15T02:58:51.401Z,95.68
2023-10-15T02:59:51.311Z,95.27
2023-10-15T03:00:51.286Z,95.48
2023-10-15T03:01:51.379Z,95.27
2023-10-15T03:02:51.322Z,95.58
2023-10-15T03:03:51.473Z,95.27
2023-10-15T03:04:51.306Z,95.68
2023-10-15T03:05:51.235Z,95.06
2023-10-15T03:06:51.226Z,95.27
2023-10-15T03:07:51.243Z,95.78
2023-10-15T03:08:51.222Z,95.68
2023-10-15T03:09:51.206Z,95.89
2023-10-15T03:10:51.216Z,95.58
2023-10-15T03:11:51.162Z,95.37
2023-10-15T03:12:51.165Z,95.89
2023-10-15T03:13:51.159Z,95.89
2023-10-15T03:14:51.140Z,95.78
2023-10-15T03:15:51.171Z,95.78
2023-10-15T03:16:51.189Z,96.41
2023-10-15T03:17:51.115Z,95.99
2023-10-15T03:18:51.108Z,95.78
2023-10-15T03:19:51.129Z,95.68
2023-10-15T03:20:51.088Z,95.48
2023-10-15T03:21:51.052Z,95.78
2023-10-15T03:22:51.077Z,95.99
2023-10-15T03:23:51.061Z,95.68
2023-10-15T03:24:51.053Z,96.09
2023-10-15T03:25:51.039Z,95.78
2023-10-15T03:26:51.010Z,96.20
2023-10-15T03:27:50.984Z,95.83
2023-10-15T03:28:51.051Z,95.99
2023-10-15T03:29:50.959Z,95.58
2023-10-15T03:30:50.965Z,95.74
2023-10-15T03:31:51.003Z,95.78
2023-10-15T03:32:50.985Z,95.99
2023-10-15T03:33:50.917Z,96.20
2023-10-15T03:34:50.962Z,96.09
2023-10-15T03:35:50.890Z,96.30
2023-10-15T03:36:50.946Z,95.78
2023-10-15T03:37:50.881Z,96.20
2023-10-15T03:38:50.860Z,95.99
2023-10-15T03:39:50.868Z,95.17
2023-10-15T03:40:50.880Z,95.17
2023-10-15T03:41:50.834Z,95.23
2023-10-15T03:42:50.817Z,95.84
2023-10-15T03:43:50.815Z,95.23
2023-10-15T03:44:51.008Z,95.23
2023-10-15T03:45:50.847Z,95.12
2023-10-15T03:46:50.805Z,95.64
2023-10-15T03:47:50.769Z,94.51
2023-10-15T03:48:50.902Z,94.76
2023-10-15T03:49:50.788Z,95.06
2023-10-15T03:50:50.767Z,94.96
2023-10-15T03:51:50.711Z,94.85
2023-10-15T03:52:50.751Z,94.71
2023-10-15T03:53:50.696Z,94.81
2023-10-15T03:54:50.716Z,94.76
2023-10-15T03:55:51.011Z,94.34
2023-10-15T03:56:50.683Z,94.45
2023-10-15T03:57:50.650Z,94.34
2023-10-15T03:58:50.679Z,94.85
2023-10-15T03:59:50.651Z,94.65
2023-10-15T04:00:50.640Z,94.45
2023-10-15T04:01:50.868Z,94.65
2023-10-15T04:02:50.628Z,94.24
2023-10-15T04:03:50.693Z,94.34
2023-10-15T04:04:50.579Z,94.20
2023-10-15T04:05:50.571Z,94.30
2023-10-15T04:06:50.582Z,93.99
2023-10-15T04:07:50.713Z,94.30
2023-10-15T04:08:50.521Z,94.30
2023-10-15T04:09:50.506Z,94.30
2023-10-15T04:10:50.589Z,94.09
2023-10-15T04:11:50.482Z,94.09
2023-10-15T04:12:50.486Z,93.88
2023-10-15T04:13:50.527Z,93.37
2023-10-15T04:14:50.464Z,93.16
2023-10-15T04:15:50.444Z,93.06
2023-10-15T04:16:50.463Z,93.21
2023-10-15T04:17:50.459Z,92.96
2023-10-15T04:18:50.467Z,93.11
2023-10-15T04:19:50.456Z,93.21
2023-10-15T04:20:50.380Z,93.11
2023-10-15T04:21:50.377Z,93.52
2023-10-15T04:22:50.416Z,93.41
2023-10-15T04:23:50.351Z,93.41
2023-10-15T04:24:50.337Z,93.31
2023-10-15T04:25:50.347Z,93.52
2023-10-15T04:26:50.311Z,93.62
2023-10-15T04:27:50.308Z,93.73
2023-10-15T04:28:50.377Z,93.41
2023-10-15T04:29:50.306Z,93.21
2023-10-15T04:30:50.269Z,93.31
2023-10-15T04:31:50.332Z,93.21
2023-10-15T04:32:50.272Z,93.83
2023-10-15T04:33:50.237Z,93.83
2023-10-15T04:34:50.258Z,94.03
2023-10-15T04:35:50.226Z,93.83
2023-10-15T04:36:50.199Z,94.03
2023-10-15T04:37:50.506Z,94.34
2023-10-15T04:38:50.198Z,94.13
2023-10-15T04:39:55.591Z,94.13
2023-10-15T04:40:51.167Z,94.03
2023-10-15T04:41:50.162Z,94.08
2023-10-15T04:42:50.627Z,94.08
2023-10-15T04:43:50.142Z,94.13
2023-10-15T04:44:50.114Z,94.03
2023-10-15T04:45:50.139Z,94.59
2023-10-15T04:46:50.102Z,94.08
2023-10-15T04:47:50.225Z,94.38
2023-10-15T04:48:50.088Z,94.34
2023-10-15T04:49:50.102Z,94.18
2023-10-15T04:50:50.112Z,94.59
2023-10-15T04:51:50.038Z,94.90
2023-10-15T04:52:50.091Z,94.80
2023-10-15T04:53:50.015Z,94.76
2023-10-15T04:54:50.027Z,95.42
2023-10-15T04:55:50.079Z,95.93
2023-10-15T04:56:49.971Z,95.73
2023-10-15T04:57:49.956Z,95.31
2023-10-15T04:58:50.024Z,96.03
2023-10-15T04:59:49.938Z,95.17
2023-10-15T05:00:50.420Z,95.78
2023-10-15T05:01:49.980Z,95.73
2023-10-15T05:02:49.943Z,95.83
2023-10-15T05:03:49.954Z,95.93
2023-10-15T05:04:49.925Z,96.24
2023-10-15T05:05:49.871Z,96.34
2023-10-15T05:06:49.855Z,95.78
2023-10-15T05:07:49.874Z,96.03
2023-10-15T05:08:49.931Z,95.68
2023-10-15T05:09:49.832Z,95.68
2023-10-15T05:10:49.930Z,95.68
2023-10-15T05:11:49.805Z,95.78
2023-10-15T05:12:49.790Z,95.68
2023-10-15T05:13:49.777Z,96.09
2023-10-15T05:14:49.781Z,95.89
2023-10-15T05:15:49.825Z,95.78
2023-10-15T05:16:49.772Z,95.84
2023-10-15T05:17:49.767Z,95.68
2023-10-15T05:18:49.740Z,96.09
2023-10-15T05:19:49.787Z,95.74
2023-10-15T05:20:49.793Z,95.12
2023-10-15T05:21:49.694Z,95.84
2023-10-15T05:22:49.726Z,96.20
2023-10-15T05:23:49.666Z,95.58
2023-10-15T05:24:49.673Z,94.92
2023-10-15T05:25:49.686Z,95.53
2023-10-15T05:26:49.653Z,94.81
2023-10-15T05:27:49.616Z,95.48
2023-10-15T05:28:49.676Z,95.12
2023-10-15T05:29:49.612Z,95.23
2023-10-15T05:30:49.628Z,95.33
2023-10-15T05:31:49.725Z,95.33
2023-10-15T05:32:49.655Z,95.53
2023-10-15T05:33:49.547Z,95.12
2023-10-15T05:34:49.553Z,94.92
2023-10-15T05:35:49.558Z,94.92
2023-10-15T05:36:49.512Z,94.81
2023-10-15T05:37:49.574Z,94.92
2023-10-15T05:38:49.528Z,95.43
2023-10-15T05:39:49.493Z,95.53
2023-10-15T05:40:49.480Z,95.53
2023-10-15T05:41:49.468Z,95.27
2023-10-15T05:42:49.475Z,95.53
2023-10-15T05:43:49.472Z,96.20
2023-10-15T05:44:49.456Z,95.89
2023-10-15T05:45:49.417Z,95.78
2023-10-15T05:46:49.469Z,95.68
2023-10-15T05:47:49.509Z,96.30
2023-10-15T05:48:49.387Z,96.20
2023-10-15T05:49:49.430Z,96.34
2023-10-15T05:50:49.375Z,96.30
2023-10-15T05:51:49.358Z,96.20
2023-10-15T05:52:49.364Z,96.71
2023-10-15T05:53:49.325Z,96.41
2023-10-15T05:54:49.317Z,96.61
2023-10-15T05:55:49.449Z,96.61
2023-10-15T05:56:49.303Z,96.50
2023-10-15T05:57:49.282Z,96.30
2023-10-15T05:58:49.323Z,96.20
2023-10-15T05:59:49.254Z,96.77
2023-10-15T06:00:49.347Z,96.20
2023-10-15T06:01:49.298Z,96.09
2023-10-15T06:02:49.302Z,96.20
2023-10-15T06:03:49.287Z,96.20
2023-10-15T06:04:49.246Z,96.61
2023-10-15T06:05:49.224Z,96.50
2023-10-15T06:06:49.178Z,96.71
2023-10-15T06:07:49.203Z,96.50
2023-10-15T06:08:49.178Z,96.71
2023-10-15T06:09:49.144Z,96.81
2023-10-15T06:10:49.190Z,96.09
2023-10-15T06:11:49.150Z,96.30
2023-10-15T06:12:49.115Z,96.41
2023-10-15T06:13:49.122Z,96.30
2023-10-15T06:14:49.109Z,95.99
2023-10-15T06:15:49.076Z,96.20
2023-10-15T06:16:49.192Z,96.30
2023-10-15T06:17:49.273Z,96.50
2023-10-15T06:18:49.061Z,95.89
2023-10-15T06:19:49.044Z,95.52
2023-10-15T06:20:49.018Z,95.89
2023-10-15T06:21:49.020Z,95.21
2023-10-15T06:22:49.128Z,95.93
2023-10-15T06:23:48.988Z,95.99
2023-10-15T06:24:48.988Z,95.89
2023-10-15T06:25:49.135Z,96.15
2023-10-15T06:26:48.965Z,96.20
2023-10-15T06:27:48.947Z,95.58
2023-10-15T06:28:48.983Z,95.48
2023-10-15T06:29:48.921Z,95.17
2023-10-15T06:30:49.007Z,95.53
2023-10-15T06:31:48.925Z,94.85
2023-10-15T06:32:48.915Z,95.33
2023-10-15T06:33:48.873Z,95.06
2023-10-15T06:34:48.951Z,94.71
2023-10-15T06:35:48.853Z,94.76
2023-10-15T06:36:48.956Z,94.92
2023-10-15T06:37:48.862Z,94.85
2023-10-15T06:38:48.811Z,95.02
2023-10-15T06:39:48.815Z,94.92
2023-10-15T06:40:48.854Z,95.02
2023-10-15T06:41:48.812Z,94.81
2023-10-15T06:42:48.804Z,94.81
2023-10-15T06:43:49.420Z,94.30
2023-10-15T06:44:48.758Z,94.30
2023-10-15T06:45:48.739Z,94.30
2023-10-15T06:46:48.841Z,93.37
2023-10-15T06:47:48.901Z,93.48
2023-10-15T06:48:48.707Z,93.37
2023-10-15T06:49:48.768Z,92.96
2023-10-15T06:50:48.684Z,93.16
2023-10-15T06:51:48.666Z,93.48
2023-10-15T06:52:48.703Z,93.06
2023-10-15T06:53:48.649Z,92.96
2023-10-15T06:54:48.647Z,93.16
2023-10-15T06:55:48.650Z,92.92
2023-10-15T06:56:48.613Z,93.16
2023-10-15T06:57:48.599Z,92.86
2023-10-15T06:58:48.747Z,93.12
2023-10-15T06:59:48.585Z,93.12
2023-10-15T07:00:48.619Z,92.92
2023-10-15T07:01:48.615Z,93.12
2023-10-15T07:02:48.634Z,93.33
2023-10-15T07:03:48.590Z,93.23
2023-10-15T07:04:48.527Z,92.92
2023-10-15T07:05:48.526Z,93.23
2023-10-15T07:06:48.492Z,92.92
2023-10-15T07:07:48.540Z,93.12
2023-10-15T07:08:48.506Z,93.39
2023-10-15T07:09:48.476Z,93.70
2023-10-15T07:10:48.500Z,94.01
2023-10-15T07:11:48.443Z,94.11
2023-10-15T07:12:48.429Z,93.80
2023-10-15T07:13:48.460Z,93.80
2023-10-15T07:14:48.412Z,94.01
2023-10-15T07:15:48.416Z,93.80
2023-10-15T07:16:48.463Z,94.42
2023-10-15T07:17:48.474Z,94.26
2023-10-15T07:18:48.387Z,94.67
2023-10-15T07:19:48.393Z,94.67
2023-10-15T07:20:48.355Z,94.62
2023-10-15T07:21:48.325Z,94.21
2023-10-15T07:22:48.422Z,94.42
2023-10-15T07:23:48.308Z,94.21
2023-10-15T07:24:48.303Z,94.62
2023-10-15T07:25:48.313Z,94.62
2023-10-15T07:26:48.281Z,94.73
2023-10-15T07:27:48.264Z,94.31
2023-10-15T07:28:48.275Z,94.62
2023-10-15T07:29:48.243Z,94.83
2023-10-15T07:30:48.269Z,94.42
2023-10-15T07:31:48.299Z,94.11
2023-10-15T07:32:48.317Z,93.90
2023-10-15T07:33:48.190Z,94.26
2023-10-15T07:34:48.237Z,94.87
2023-10-15T07:35:48.180Z,94.42
2023-10-15T07:36:48.152Z,94.93
2023-10-15T07:37:48.233Z,94.93
2023-10-15T07:38:48.133Z,94.93
2023-10-15T07:39:48.118Z,94.73
2023-10-15T07:40:48.151Z,94.52
2023-10-15T07:41:48.108Z,94.62
2023-10-15T07:42:48.091Z,94.11
2023-10-15T07:43:48.104Z,94.52
2023-10-15T07:44:48.061Z,94.17
2023-10-15T07:45:48.074Z,94.48
2023-10-15T07:46:48.115Z,94.12
2023-10-15T07:47:48.096Z,93.67
2023-10-15T07:48:48.020Z,92.95
2023-10-15T07:49:48.032Z,93.21
2023-10-15T07:50:48.016Z,91.06
2023-10-15T07:51:48.007Z,90.75
2023-10-15T07:52:48.027Z,91.20
2023-10-15T07:53:47.955Z,90.95
2023-10-15T07:54:47.949Z,91.02
2023-10-15T07:55:48.034Z,90.56
2023-10-15T07:56:47.948Z,89.70
2023-10-15T07:57:48.022Z,88.94
2023-10-15T07:58:47.959Z,88.57
2023-10-15T07:59:47.891Z,88.43
2023-10-15T08:00:57.817Z,88.12
2023-10-15T08:01:48.996Z,88.74
2023-10-15T08:02:48.101Z,88.43
2023-10-15T08:03:48.128Z,88.94
2023-10-15T08:04:47.984Z,88.64
2023-10-15T08:05:48.013Z,87.51
2023-10-15T08:06:48.223Z,87.45
2023-10-15T08:07:47.812Z,87.92
2023-10-15T08:08:47.801Z,87.61
2023-10-15T08:09:47.781Z,87.51
2023-10-15T08:10:47.859Z,87.20
2023-10-15T08:11:47.753Z,87.41
2023-10-15T08:12:47.808Z,88.23
2023-10-15T08:13:47.776Z,88.57
2023-10-15T08:14:47.738Z,88.74
2023-10-15T08:15:47.722Z,88.64
2023-10-15T08:16:47.788Z,89.04
2023-10-15T08:17:48.091Z,88.37
2023-10-15T08:18:47.695Z,88.98
2023-10-15T08:19:47.693Z,88.82
2023-10-15T08:20:47.652Z,89.19
2023-10-15T08:21:47.651Z,88.62
2023-10-15T08:22:47.697Z,88.51
2023-10-15T08:23:47.626Z,89.17
2023-10-15T08:24:47.607Z,88.76
2023-10-15T08:25:47.615Z,89.17
2023-10-15T08:26:47.605Z,88.86
2023-10-15T08:27:47.576Z,89.48
2023-10-15T08:28:47.604Z,89.21
2023-10-15T08:29:47.560Z,89.11
2023-10-15T08:30:47.567Z,89.42
2023-10-15T08:31:47.554Z,89.72
2023-10-15T08:32:47.840Z,89.21
2023-10-15T08:33:50.780Z,89.72
2023-10-15T08:34:47.525Z,90.50
2023-10-15T08:35:47.488Z,90.81
2023-10-15T08:36:47.484Z,91.12
2023-10-15T08:37:47.561Z,89.93
2023-10-15T08:38:47.473Z,90.09
2023-10-15T08:39:47.450Z,89.58
2023-10-15T08:40:47.497Z,89.31
2023-10-15T08:41:47.415Z,88.90
2023-10-15T08:42:47.411Z,90.03
2023-10-15T08:43:47.466Z,89.69
2023-10-15T08:44:47.381Z,89.78
2023-10-15T08:45:47.394Z,89.62
2023-10-15T08:46:47.472Z,89.83
2023-10-15T08:47:47.374Z,89.72
2023-10-15T08:48:47.359Z,89.37
2023-10-15T08:49:47.387Z,90.09
2023-10-15T08:50:47.331Z,89.84
2023-10-15T08:51:47.301Z,89.43
2023-10-15T08:52:47.345Z,89.89
2023-10-15T08:53:47.315Z,89.07
2023-10-15T08:54:47.309Z,88.86
2023-10-15T08:55:47.269Z,88.96
2023-10-15T08:56:47.280Z,88.86
2023-10-15T08:57:47.236Z,88.76
2023-10-15T08:58:47.247Z,88.76
2023-10-15T08:59:47.229Z,89.17
2023-10-15T09:00:47.227Z,89.33
2023-10-15T09:01:47.337Z,89.13
2023-10-15T09:02:47.274Z,88.88
2023-10-15T09:03:47.199Z,88.57
2023-10-15T09:04:47.171Z,88.53
2023-10-15T09:05:47.148Z,88.39
2023-10-15T09:06:47.143Z,87.88
2023-10-15T09:07:47.186Z,86.96
2023-10-15T09:08:47.141Z,86.96
2023-10-15T09:09:47.102Z,86.96
2023-10-15T09:10:47.152Z,86.96
2023-10-15T09:11:47.141Z,87.06
2023-10-15T09:12:47.078Z,86.96
2023-10-15T09:13:47.095Z,86.85
2023-10-15T09:14:47.065Z,86.75
2023-10-15T09:15:47.049Z,87.47
2023-10-15T09:16:47.122Z,86.96
2023-10-15T09:17:47.092Z,86.85
2023-10-15T09:18:47.022Z,87.57
2023-10-15T09:19:47.049Z,88.02
2023-10-15T09:20:47.018Z,87.96
2023-10-15T09:21:46.987Z,88.27
2023-10-15T09:22:46.994Z,88.88
2023-10-15T09:23:46.948Z,88.78
2023-10-15T09:24:46.940Z,88.37
2023-10-15T09:25:46.966Z,88.88
2023-10-15T09:26:46.965Z,89.09
2023-10-15T09:27:46.899Z,88.82
2023-10-15T09:28:46.908Z,89.64
2023-10-15T09:29:46.876Z,89.69
2023-10-15T09:30:46.881Z,90.09
2023-10-15T09:31:46.986Z,90.44
2023-10-15T09:32:46.964Z,90.65
2023-10-15T09:33:46.857Z,91.27
2023-10-15T09:34:46.886Z,92.19
2023-10-15T09:35:46.826Z,90.95
2023-10-15T09:36:46.807Z,91.99
2023-10-15T09:37:46.824Z,91.88
2023-10-15T09:38:46.779Z,92.50
2023-10-15T09:39:46.768Z,91.99
2023-10-15T09:40:46.889Z,91.88
2023-10-15T09:41:46.742Z,92.35
2023-10-15T09:42:46.753Z,92.82
2023-10-15T09:43:46.776Z,92.68
2023-10-15T09:44:46.708Z,92.53
2023-10-15T09:45:46.765Z,92.53
2023-10-15T09:46:46.726Z,92.49
2023-10-15T09:47:46.726Z,90.91
2023-10-15T09:48:46.666Z,90.91
2023-10-15T09:49:46.681Z,89.51
2023-10-15T09:50:46.638Z,88.90
2023-10-15T09:51:46.641Z,88.74
2023-10-15T09:52:46.649Z,88.53
2023-10-15T09:53:46.607Z,88.74
2023-10-15T09:54:46.596Z,87.96
2023-10-15T09:55:46.604Z,88.78
2023-10-15T09:56:46.584Z,88.78
2023-10-15T09:57:46.566Z,88.78
2023-10-15T09:58:46.592Z,89.09
2023-10-15T09:59:46.576Z,89.09
2023-10-15T10:00:46.534Z,88.84
2023-10-15T10:01:46.642Z,88.94
2023-10-15T10:02:46.679Z,89.21
2023-10-15T10:03:46.616Z,88.64
2023-10-15T10:04:46.564Z,88.02
2023-10-15T10:05:46.563Z,87.20
2023-10-15T10:06:46.459Z,86.75
2023-10-15T10:07:46.520Z,86.79
2023-10-15T10:08:46.453Z,86.24
2023-10-15T10:09:46.428Z,85.56
2023-10-15T10:10:46.443Z,86.18
2023-10-15T10:11:46.413Z,86.69
2023-10-15T10:12:46.393Z,86.28
2023-10-15T10:13:46.414Z,86.79
2023-10-15T10:14:46.393Z,85.71
2023-10-15T10:15:46.373Z,85.71
2023-10-15T10:16:46.450Z,86.22
2023-10-15T10:17:46.409Z,86.11
2023-10-15T10:18:46.357Z,85.91
2023-10-15T10:19:46.360Z,86.52
2023-10-15T10:20:46.309Z,86.69
2023-10-15T10:21:46.289Z,86.14
2023-10-15T10:22:46.334Z,85.31
2023-10-15T10:23:49.104Z,84.60
2023-10-15T10:24:46.289Z,83.64
2023-10-15T10:25:46.345Z,82.92
2023-10-15T10:26:46.236Z,83.03
2023-10-15T10:27:46.256Z,83.46
2023-10-15T10:28:46.273Z,82.54
2023-10-15T10:29:46.214Z,83.01
2023-10-15T10:30:46.226Z,82.70
2023-10-15T10:31:46.294Z,80.56
2023-10-15T10:32:46.207Z,79.64
2023-10-15T10:33:46.215Z,79.64
2023-10-15T10:34:46.172Z,79.13
2023-10-15T10:35:46.169Z,78.72
2023-10-15T10:36:46.120Z,79.84
2023-10-15T10:37:46.139Z,79.43
2023-10-15T10:38:48.234Z,80.32
2023-10-15T10:39:46.084Z,79.60
2023-10-15T10:40:46.090Z,79.87
2023-10-15T10:41:46.151Z,80.07
2023-10-15T10:42:46.050Z,79.22
2023-10-15T10:43:46.107Z,77.83
2023-10-15T10:44:46.120Z,77.35
2023-10-15T10:45:46.048Z,77.86
2023-10-15T10:46:46.153Z,78.54
2023-10-15T10:47:46.028Z,78.85
2023-10-15T10:48:46.029Z,79.16
2023-10-15T10:49:46.003Z,78.88
2023-10-15T10:50:45.966Z,79.09
2023-10-15T10:51:45.972Z,79.36
2023-10-15T10:52:45.995Z,78.48
2023-10-15T10:53:45.940Z,78.85
2023-10-15T10:54:45.918Z,77.31
2023-10-15T10:55:45.947Z,78.13
2023-10-15T10:56:45.907Z,78.23
2023-10-15T10:57:45.893Z,78.50
2023-10-15T10:58:45.921Z,77.52
2023-10-15T10:59:45.877Z,77.93
2023-10-15T11:00:45.897Z,78.85
2023-10-15T11:01:45.870Z,78.13
2023-10-15T11:02:45.906Z,78.13
2023-10-15T11:03:45.848Z,78.67
2023-10-15T11:04:45.857Z,78.43
2023-10-15T11:05:45.811Z,77.21
2023-10-15T11:06:45.782Z,76.90
2023-10-15T11:07:45.861Z,77.41
2023-10-15T11:08:45.764Z,77.31
2023-10-15T11:09:45.772Z,76.02
2023-10-15T11:10:45.795Z,76.73
2023-10-15T11:11:45.739Z,77.41
2023-10-15T11:12:45.712Z,78.02
2023-10-15T11:13:45.745Z,76.50
2023-10-15T11:14:45.713Z,75.68
2023-10-15T11:15:45.701Z,75.31
2023-10-15T11:16:45.717Z,75.65
2023-10-15T11:17:45.740Z,76.06
2023-10-15T11:18:45.675Z,76.81
2023-10-15T11:19:45.684Z,77.42
2023-10-15T11:20:45.625Z,78.03
2023-10-15T11:21:45.608Z,78.54
2023-10-15T11:22:45.660Z,78.23
2023-10-15T11:23:45.590Z,77.83
2023-10-15T11:24:45.591Z,77.69
2023-10-15T11:25:45.632Z,77.55
2023-10-15T11:26:45.559Z,76.93
2023-10-15T11:27:45.546Z,76.06
2023-10-15T11:28:45.600Z,76.06
2023-10-15T11:29:45.534Z,75.54
2023-10-15T11:30:45.616Z,75.99
2023-10-15T11:31:45.556Z,76.60
2023-10-15T11:32:45.660Z,77.38
2023-10-15T11:33:45.495Z,78.00
2023-10-15T11:34:45.504Z,78.47
2023-10-15T11:35:45.464Z,77.45
2023-10-15T11:36:45.489Z,76.06
2023-10-15T11:37:45.711Z,76.32
2023-10-15T11:38:45.445Z,76.43
2023-10-15T11:39:45.420Z,74.96
2023-10-15T11:40:45.445Z,73.71
2023-10-15T11:41:45.389Z,74.35
2023-10-15T11:42:45.372Z,75.07
2023-10-15T11:43:45.377Z,74.76
2023-10-15T11:44:45.443Z,74.18
2023-10-15T11:45:45.356Z,74.18
2023-10-15T11:46:45.392Z,73.33
2023-10-15T11:47:45.429Z,75.75
2023-10-15T11:48:45.304Z,76.53
2023-10-15T11:49:45.375Z,76.59
2023-10-15T11:50:45.306Z,76.56
2023-10-15T11:51:45.268Z,76.01
2023-10-15T11:52:45.298Z,74.79
2023-10-15T11:53:45.243Z,73.16
2023-10-15T11:54:45.247Z,73.26
2023-10-15T11:55:45.281Z,72.75
2023-10-15T11:56:45.242Z,73.77
2023-10-15T11:57:45.200Z,73.71
2023-10-15T11:58:45.212Z,73.19
2023-10-15T11:59:45.193Z,73.91
2023-10-15T12:00:45.187Z,73.84
2023-10-15T12:01:45.176Z,74.05
2023-10-15T12:02:45.174Z,73.16
2023-10-15T12:03:45.175Z,72.45
2023-10-15T12:04:45.167Z,72.65
2023-10-15T12:05:45.112Z,73.47
2023-10-15T12:06:45.118Z,74.25
2023-10-15T12:07:46.847Z,73.84
2023-10-15T12:08:45.085Z,73.71
2023-10-15T12:09:45.065Z,73.91
2023-10-15T12:10:45.112Z,72.17
2023-10-15T12:11:45.062Z,72.89
2023-10-15T12:12:45.034Z,72.69
2023-10-15T12:13:45.078Z,72.08
2023-10-15T12:14:45.016Z,72.69
2023-10-15T12:15:45.042Z,72.79
2023-10-15T12:16:45.060Z,73.50
2023-10-15T12:17:45.012Z,75.74
2023-10-15T12:18:44.987Z,74.32
2023-10-15T12:19:45.015Z,74.32
2023-10-15T12:20:44.967Z,73.91
2023-10-15T12:21:44.927Z,73.81
2023-10-15T12:22:45.012Z,72.72
2023-10-15T12:23:44.949Z,72.75
2023-10-15T12:24:45.229Z,73.16
2023-10-15T12:25:44.928Z,74.69
2023-10-15T12:26:46.451Z,75.61
2023-10-15T12:27:44.866Z,75.57
2023-10-15T12:28:44.949Z,74.66
2023-10-15T12:29:44.870Z,73.94
2023-10-15T12:30:44.914Z,73.94
2023-10-15T12:31:44.900Z,73.33
2023-10-15T12:32:47.272Z,72.72
2023-10-15T12:33:44.822Z,73.19
2023-10-15T12:34:44.803Z,72.38
2023-10-15T12:35:44.789Z,71.80
2023-10-15T12:36:44.768Z,72.92
2023-10-15T12:37:44.795Z,72.31
2023-10-15T12:38:44.784Z,72.24
2023-10-15T12:39:44.749Z,72.45
2023-10-15T12:40:44.806Z,72.24
2023-10-15T12:41:44.717Z,72.55
2023-10-15T12:42:44.710Z,73.27
2023-10-15T12:43:44.730Z,73.19
2023-10-15T12:44:44.687Z,72.99
2023-10-15T12:45:44.660Z,73.77
2023-10-15T12:46:44.742Z,73.06
2023-10-15T12:47:44.692Z,74.15
2023-10-15T12:48:44.624Z,75.85
2023-10-15T12:49:44.646Z,72.48
2023-10-15T12:50:44.605Z,72.89
2023-10-15T12:51:44.631Z,73.16
2023-10-15T12:52:44.607Z,75.40